Time;durP1;ratioP1;P1;durP2;ratioP2;P2;SDS_P1;SDS_P2;PMS_P1;PMS_P2;Temp;Humidity;BMP_temperature;BMP_pressure;BME280_temperature;BME280_humidity;BME280_pressure;Samples;Min_cycle;Max_cycle;Signal;HPM_P1;HPM_P2
2021/07/15 00:00:12;;;;;;;20.70;15.82;;;;;;;22.56;84.38;96940.25;5003996;28;20061;-64
2021/07/15 00:02:40;;;;;;;17.60;15.82;;;;;;;22.57;84.25;96939.00;5002985;28;20489;-62
2021/07/15 00:05:13;;;;;;;18.55;15.85;;;;;;;22.54;84.73;96949.16;4987814;28;20077;-61
2021/07/15 00:07:40;;;;;;;19.65;15.25;;;;;;;22.48;86.18;96941.69;4984705;28;20086;-61
2021/07/15 00:10:39;;;;;;;19.27;14.65;;;;;;;22.42;87.26;96939.41;4982508;28;20060;-63
2021/07/15 00:13:07;;;;;;;19.25;15.18;;;;;;;21.96;87.55;96889.25;4982590;28;20058;-62
2021/07/15 00:15:38;;;;;;;17.50;15.02;;;;;;;22.42;87.68;96942.25;4982923;28;20166;-61
2021/07/15 00:18:09;;;;;;;20.90;15.80;;;;;;;22.09;87.73;96895.69;4982508;28;20581;-62
2021/07/15 00:20:40;;;;;;;20.30;15.23;;;;;;;22.19;87.83;96919.97;4984139;28;20528;-61
2021/07/15 00:23:07;;;;;;;17.95;15.38;;;;;;;22.38;87.64;96938.72;4984732;28;20061;-61
2021/07/15 00:25:35;;;;;;;19.27;16.20;;;;;;;21.11;87.61;96799.91;4983926;28;20582;-62
2021/07/15 00:28:02;;;;;;;21.77;15.68;;;;;;;22.10;88.23;96921.88;4982693;28;20058;-62
2021/07/15 00:30:29;;;;;;;19.73;15.90;;;;;;;22.13;88.66;96944.34;4982632;28;20117;-61
2021/07/15 00:32:56;;;;;;;18.30;16.25;;;;;;;21.82;88.07;96881.22;4984231;28;20125;-62
2021/07/15 00:35:23;;;;;;;18.55;15.50;;;;;;;22.28;87.50;96928.56;4984406;28;20509;-62
2021/07/15 00:37:50;;;;;;;18.10;15.48;;;;;;;21.90;88.04;96895.88;4982491;28;20054;-62
2021/07/15 00:40:17;;;;;;;18.77;15.73;;;;;;;22.03;89.29;96939.81;4983057;28;20062;-63
2021/07/15 00:42:45;;;;;;;17.85;14.85;;;;;;;22.00;89.75;96928.63;4982723;28;20074;-65
2021/07/15 00:45:14;;;;;;;19.20;15.18;;;;;;;21.70;90.20;96898.88;4983984;28;20100;-63
2021/07/15 00:47:41;;;;;;;20.33;15.57;;;;;;;21.86;90.09;96890.34;4984395;28;20061;-63
2021/07/15 00:50:09;;;;;;;22.23;16.08;;;;;;;21.82;90.77;96900.94;4983910;28;20147;-63
2021/07/15 00:52:38;;;;;;;19.10;15.52;;;;;;;21.82;90.27;96889.66;4299497;28;20003939;-63
2021/07/15 00:55:12;;;;;;;16.70;14.90;;;;;;;22.12;89.96;96928.66;5003636;28;20699;-63
2021/07/15 00:57:39;;;;;;;19.80;15.45;;;;;;;22.21;88.94;96931.59;5002511;28;20053;-63
2021/07/15 01:00:08;;;;;;;17.73;14.52;;;;;;;22.18;88.94;96921.22;5002978;28;20064;-63
2021/07/15 01:02:35;;;;;;;20.98;16.00;;;;;;;22.08;88.82;96902.56;5002274;28;20064;-62
2021/07/15 01:05:18;;;;;;;19.20;15.20;;;;;;;22.13;88.80;96916.13;4988263;28;20050;-62
2021/07/15 01:07:44;;;;;;;20.52;15.25;;;;;;;22.13;88.69;96910.47;4982923;28;20050;-62
2021/07/15 01:10:16;;;;;;;24.13;15.85;;;;;;;22.02;88.29;96893.09;4982487;28;20097;-62
2021/07/15 01:12:58;;;;;;;19.05;17.00;;;;;;;21.81;87.60;96876.81;4984469;28;20050;-63
2021/07/15 01:15:38;;;;;;;21.80;16.75;;;;;;;22.04;88.49;96910.38;4982974;28;20409;-62
2021/07/15 01:18:09;;;;;;;19.13;16.55;;;;;;;21.89;89.82;96906.38;4982729;28;20069;-62
2021/07/15 01:20:56;;;;;;;19.00;15.52;;;;;;;21.94;89.82;96916.34;4981829;28;20145;-62
2021/07/15 01:23:32;;;;;;;16.75;14.52;;;;;;;21.88;89.21;96896.34;4962219;28;20065;-63
2021/07/15 01:26:10;;;;;;;20.67;15.77;;;;;;;21.82;89.84;96912.22;4982076;28;20086;-62
2021/07/15 01:29:04;;;;;;;19.45;15.10;;;;;;;21.80;90.23;96911.88;4982417;28;20122;-62
2021/07/15 01:31:34;;;;;;;19.15;16.88;;;;;;;21.67;91.11;96908.19;4984466;28;20073;-62
2021/07/15 01:34:02;;;;;;;20.85;16.30;;;;;;;21.66;91.40;96914.28;4982417;28;20066;-63
2021/07/15 01:36:33;;;;;;;23.30;16.10;;;;;;;21.61;91.62;96906.41;4983149;28;20058;-62
2021/07/15 01:39:06;;;;;;;20.92;15.80;;;;;;;21.53;91.84;96905.78;4981632;28;20065;-62
2021/07/15 01:41:37;;;;;;;18.80;16.10;;;;;;;21.39;91.84;96883.63;4981734;28;20054;-63
2021/07/15 01:44:09;;;;;;;18.27;15.65;;;;;;;21.41;91.93;96902.91;4983971;28;20085;-62
2021/07/15 01:46:37;;;;;;;22.67;15.15;;;;;;;21.33;92.04;96896.69;4983397;28;20174;-62
2021/07/15 01:49:06;;;;;;;18.67;15.60;;;;;;;21.01;92.45;96857.31;4982774;28;20054;-62
2021/07/15 01:51:34;;;;;;;21.20;14.93;;;;;;;21.35;91.99;96897.03;4985041;28;20074;-64
2021/07/15 01:54:03;;;;;;;18.67;16.08;;;;;;;21.33;91.90;96902.31;4987036;28;20058;-64
2021/07/15 01:56:31;;;;;;;18.52;15.88;;;;;;;20.94;91.84;96851.84;4986745;28;20050;-63
2021/07/15 01:58:59;;;;;;;22.95;15.35;;;;;;;21.28;91.66;96897.22;4986698;28;20053;-63
2021/07/15 02:01:27;;;;;;;17.58;14.90;;;;;;;21.24;91.69;96896.53;4986730;28;20081;-65
2021/07/15 02:03:57;;;;;;;18.83;15.18;;;;;;;20.71;91.46;96815.44;4989371;28;20131;-63
2021/07/15 02:06:25;;;;;;;21.05;15.75;;;;;;;21.27;90.49;96909.75;5006082;28;20140;-63
2021/07/15 02:08:53;;;;;;;16.88;15.18;;;;;;;21.30;90.19;96897.59;5004717;28;20058;-63
2021/07/15 02:11:22;;;;;;;17.30;14.95;;;;;;;21.35;89.39;96897.03;5006106;28;20092;-62
2021/07/15 02:13:50;;;;;;;19.30;14.73;;;;;;;21.22;89.56;96887.75;5004244;28;20060;-61
2021/07/15 02:16:18;;;;;;;18.92;15.07;;;;;;;21.22;89.95;96907.47;5004942;28;20061;-63
2021/07/15 02:18:46;;;;;;;18.02;15.45;;;;;;;21.23;89.59;96897.75;5006299;28;20521;-62
2021/07/15 02:21:14;;;;;;;19.48;15.00;;;;;;;21.20;90.10;96904.28;5004713;28;20054;-63
2021/07/15 02:23:43;;;;;;;19.02;15.40;;;;;;;19.15;89.58;96592.00;5004962;28;20576;-61
2021/07/15 02:26:11;;;;;;;18.92;15.77;;;;;;;21.11;90.08;96906.94;5004593;28;20085;-62
2021/07/15 02:28:38;;;;;;;20.88;16.35;;;;;;;20.63;89.81;96830.94;5004358;28;20054;-63
2021/07/15 02:31:15;;;;;;;22.23;15.75;;;;;;;20.99;90.81;96913.31;5005640;28;20057;-62
2021/07/15 02:33:48;;;;;;;21.40;14.95;;;;;;;20.75;90.54;96850.72;5005897;28;20134;-62
2021/07/15 02:36:18;;;;;;;21.38;15.88;;;;;;;21.05;89.81;96891.81;5004130;28;20049;-62
2021/07/15 02:38:48;;;;;;;18.05;15.32;;;;;;;21.06;89.67;96892.59;5004472;28;20104;-62
2021/07/15 02:41:15;;;;;;;22.63;15.85;;;;;;;21.01;89.85;96902.38;5004715;28;20056;-63
2021/07/15 02:43:42;;;;;;;17.10;15.18;;;;;;;20.94;90.04;96897.69;5006385;28;20057;-63
2021/07/15 02:46:09;;;;;;;17.35;15.27;;;;;;;20.89;90.35;96900.25;5004188;28;20520;-62
2021/07/15 02:48:36;;;;;;;19.88;15.90;;;;;;;20.99;89.63;96894.38;5004249;28;20280;-62
2021/07/15 02:51:03;;;;;;;20.08;14.50;;;;;;;20.94;89.74;96900.50;5003958;28;20054;-62
2021/07/15 02:53:29;;;;;;;18.52;15.23;;;;;;;20.90;89.36;96901.84;5005598;28;20054;-63
2021/07/15 02:56:17;;;;;;;20.08;15.68;;;;;;;20.89;89.13;96905.91;5004000;28;20125;-62
2021/07/15 02:59:25;;;;;;;18.88;15.27;;;;;;;20.93;88.56;96906.56;5005713;28;20058;-62
2021/07/15 03:02:04;;;;;;;16.67;14.80;;;;;;;20.96;87.91;96902.91;4992686;28;20128;-62
2021/07/15 03:05:04;;;;;;;19.30;16.00;;;;;;;20.84;88.15;96910.03;4994967;28;20811;-61
2021/07/15 03:07:35;;;;;;;17.15;14.75;;;;;;;20.59;87.88;96864.03;4984267;28;20069;-62
2021/07/15 03:10:04;;;;;;;19.70;15.55;;;;;;;20.90;87.27;96907.47;4985210;28;20142;-62
2021/07/15 03:12:34;;;;;;;19.02;15.73;;;;;;;20.91;87.11;96909.06;4983931;28;20600;-62
2021/07/15 03:15:03;;;;;;;19.23;15.18;;;;;;;20.91;86.83;96907.03;4983696;28;20082;-62
2021/07/15 03:17:36;;;;;;;19.25;14.88;;;;;;;20.94;86.74;96902.56;4985306;28;20054;-62
2021/07/15 03:20:07;;;;;;;21.73;14.60;;;;;;;20.61;85.81;96839.06;4984146;28;20062;-61
2021/07/15 03:22:40;;;;;;;19.50;15.30;;;;;;;20.74;85.79;96860.41;4985364;28;20436;-61
2021/07/15 03:25:13;;;;;;;15.63;13.98;;;;;;;20.59;85.46;96855.59;4983821;28;20073;-61
2021/07/15 03:27:49;;;;;;;18.77;14.63;;;;;;;20.50;85.55;96835.72;4983730;28;20050;-63
2021/07/15 03:30:17;;;;;;;19.00;14.98;;;;;;;20.84;86.51;96909.25;4983223;28;20551;-61
2021/07/15 03:32:49;;;;;;;19.40;15.32;;;;;;;20.80;86.49;96902.91;4984775;28;20062;-62
2021/07/15 03:35:17;;;;;;;18.20;13.85;;;;;;;20.68;86.50;96883.91;4983166;28;20089;-64
2021/07/15 03:37:46;;;;;;;18.38;13.93;;;;;;;20.88;85.99;96904.31;4985331;28;20490;-63
2021/07/15 03:40:15;;;;;;;17.38;13.43;;;;;;;20.87;86.02;96908.34;4984756;28;20054;-64
2021/07/15 03:42:44;;;;;;;19.13;14.77;;;;;;;20.78;85.62;96888.47;4983691;28;20577;-62
2021/07/15 03:45:14;;;;;;;16.88;15.02;;;;;;;20.94;85.38;96908.19;4984493;28;20524;-62
2021/07/15 03:47:41;;;;;;;17.70;14.45;;;;;;;20.82;84.12;96861.00;4984818;28;20460;-62
2021/07/15 03:50:09;;;;;;;17.10;13.45;;;;;;;20.72;83.54;96833.94;4983097;28;20144;-63
2021/07/15 03:52:38;;;;;;;17.20;13.88;;;;;;;21.30;82.85;96900.41;4983417;28;20437;-62
2021/07/15 03:55:07;;;;;;;22.25;14.30;;;;;;;21.36;82.13;96901.44;4983456;28;20132;-63
2021/07/15 03:57:35;;;;;;;15.85;14.02;;;;;;;20.96;81.38;96832.50;4983988;28;20109;-63
2021/07/15 04:00:04;;;;;;;20.85;13.95;;;;;;;20.94;81.46;96829.31;4983616;28;20081;-64
2021/07/15 04:02:32;;;;;;;19.17;13.30;;;;;;;21.39;81.12;96889.28;4983054;28;20108;-63
2021/07/15 04:04:59;;;;;;;19.73;13.32;;;;;;;21.70;80.40;96910.16;4995178;28;20509;-63
2021/07/15 04:07:29;;;;;;;25.20;13.40;;;;;;;21.72;80.47;96907.66;5003653;28;20050;-63
2021/07/15 04:09:57;;;;;;;16.17;13.55;;;;;;;21.89;80.13;96903.53;5003982;28;20513;-62
2021/07/15 04:12:26;;;;;;;21.95;13.55;;;;;;;21.81;79.24;96854.25;5002927;28;20058;-64
2021/07/15 04:15:15;;;;;;;18.98;12.80;;;;;;;22.31;77.16;96910.75;5003752;28;20089;-63
2021/07/15 04:17:46;;;;;;;19.23;14.43;;;;;;;22.44;77.35;96908.72;5002717;28;20081;-64
2021/07/15 04:20:14;;;;;;;18.73;15.77;;;;;;;22.01;77.30;96852.00;5003534;28;20421;-64
2021/07/15 04:22:44;;;;;;;18.88;15.77;;;;;;;22.40;79.31;96902.38;5003681;28;20049;-65
2021/07/15 04:25:15;;;;;;;23.92;18.30;;;;;;;22.28;81.88;96893.91;5003601;28;20053;-63
2021/07/15 04:27:44;;;;;;;26.25;18.38;;;;;;;21.86;81.86;96800.09;5002364;28;20127;-64
2021/07/15 04:30:11;;;;;;;24.13;18.98;;;;;;;22.60;81.98;96898.56;5003921;28;20060;-63
2021/07/15 04:32:43;;;;;;;19.98;17.40;;;;;;;22.70;81.72;96897.44;5002581;28;20065;-63
2021/07/15 04:35:13;;;;;;;26.50;17.83;;;;;;;22.71;81.39;96882.84;5002492;28;20061;-64
2021/07/15 04:37:42;;;;;;;22.08;16.85;;;;;;;22.85;81.75;96898.53;5003981;28;20137;-64
2021/07/15 04:40:13;;;;;;;22.77;17.73;;;;;;;22.88;81.30;96903.28;5001736;28;20478;-65
2021/07/15 04:42:40;;;;;;;20.48;16.98;;;;;;;22.95;81.20;96903.03;5002305;28;20440;-64
2021/07/15 04:45:10;;;;;;;23.38;16.90;;;;;;;23.05;79.89;96884.91;5003518;28;20157;-64
2021/07/15 04:47:43;;;;;;;28.70;18.42;;;;;;;21.40;78.42;96634.41;5001844;28;20517;-65
2021/07/15 04:50:13;;;;;;;30.23;18.60;;;;;;;23.01;79.15;96861.66;5003496;28;20064;-64
2021/07/15 04:52:46;;;;;;;24.02;16.83;;;;;;;23.48;78.28;96896.34;5004026;28;20081;-64
2021/07/15 04:55:16;;;;;;;27.75;18.10;;;;;;;23.57;77.19;96893.56;5002481;28;20452;-63
2021/07/15 04:57:43;;;;;;;25.15;19.45;;;;;;;23.24;76.36;96825.28;5002042;28;20137;-65
2021/07/15 05:00:13;;;;;;;24.90;16.55;;;;;;;23.98;75.22;96913.09;4986725;28;20508;-63
2021/07/15 05:02:40;;;;;;;26.25;16.70;;;;;;;24.13;74.46;96894.31;4982360;28;20096;-66
2021/07/15 05:05:12;;;;;;;21.30;17.23;;;;;;;24.17;73.39;96894.97;4991925;28;20058;-63
2021/07/15 05:07:40;;;;;;;30.67;18.35;;;;;;;24.34;73.37;96893.50;5003458;28;20056;-64
2021/07/15 05:10:11;;;;;;;25.10;17.48;;;;;;;24.00;73.29;96839.84;5002093;28;20085;-62
2021/07/15 05:12:39;;;;;;;23.48;17.45;;;;;;;24.50;72.67;96892.47;5003872;28;20054;-62
2021/07/15 05:15:08;;;;;;;27.92;17.80;;;;;;;24.58;71.61;96877.53;5002093;28;20110;-62
2021/07/15 05:17:35;;;;;;;26.40;17.38;;;;;;;24.87;70.75;96894.97;5002074;28;20050;-63
2021/07/15 05:20:07;;;;;;;22.52;16.52;;;;;;;24.82;70.84;96880.63;5001677;28;20062;-63
2021/07/15 05:22:35;;;;;;;24.40;17.40;;;;;;;24.67;72.59;96891.78;5001749;28;20054;-62
2021/07/15 05:25:07;;;;;;;22.88;17.52;;;;;;;24.73;71.08;96874.94;5005864;28;20064;-63
2021/07/15 05:27:34;;;;;;;26.00;16.48;;;;;;;24.83;71.11;96896.38;5005561;28;20049;-64
2021/07/15 05:30:02;;;;;;;27.35;17.30;;;;;;;24.77;70.61;96847.25;5007306;28;20053;-64
2021/07/15 05:32:29;;;;;;;23.60;18.00;;;;;;;25.09;70.43;96895.66;5005555;28;20543;-64
2021/07/15 05:34:57;;;;;;;25.38;17.77;;;;;;;25.28;69.48;96902.13;5006598;28;20050;-64
2021/07/15 05:37:23;;;;;;;30.77;17.42;;;;;;;25.46;68.78;96885.19;5006741;28;20060;-64
2021/07/15 05:39:50;;;;;;;24.10;18.50;;;;;;;25.32;68.22;96846.84;5006243;28;20931;-62
2021/07/15 05:42:17;;;;;;;24.40;18.08;;;;;;;25.57;67.04;96851.44;5004767;28;20437;-64
2021/07/15 05:44:44;;;;;;;24.95;18.42;;;;;;;25.65;66.43;96849.06;5004930;28;20584;-63
2021/07/15 05:47:11;;;;;;;25.70;17.50;;;;;;;25.62;66.47;96830.16;5005353;28;20061;-62
2021/07/15 05:49:39;;;;;;;25.98;18.63;;;;;;;26.02;65.63;96859.91;5005433;28;20062;-63
2021/07/15 05:52:11;;;;;;;25.42;17.55;;;;;;;26.33;65.81;96880.34;5006280;28;20061;-64
2021/07/15 05:54:39;;;;;;;19.40;15.77;;;;;;;26.47;65.51;96878.88;5005011;28;20089;-63
2021/07/15 05:57:06;;;;;;;20.98;16.30;;;;;;;26.73;64.97;96874.34;5004985;28;20055;-62
2021/07/15 05:59:33;;;;;;;27.83;17.40;;;;;;;26.21;65.08;96779.06;4995725;28;20484;-62
2021/07/15 06:02:01;;;;;;;18.38;15.85;;;;;;;26.93;64.94;96877.41;4985032;28;20064;-63
2021/07/15 06:04:28;;;;;;;23.83;15.45;;;;;;;26.45;65.04;96807.53;4986177;28;20058;-61
2021/07/15 06:06:55;;;;;;;21.00;15.95;;;;;;;26.63;65.21;96835.88;5003073;28;20054;-65
2021/07/15 06:09:22;;;;;;;22.27;16.90;;;;;;;27.20;64.98;96868.72;5006312;28;20080;-62
2021/07/15 06:11:49;;;;;;;20.48;16.00;;;;;;;26.68;65.68;96827.47;5006403;28;20415;-63
2021/07/15 06:14:17;;;;;;;24.67;16.73;;;;;;;26.34;68.72;96858.41;5005733;28;20061;-63
2021/07/15 06:16:43;;;;;;;26.30;15.32;;;;;;;26.92;66.21;96849.47;5004018;28;20060;-64
2021/07/15 06:19:10;;;;;;;23.75;15.32;;;;;;;26.79;65.77;96809.91;4986643;28;20085;-61
2021/07/15 06:21:37;;;;;;;18.20;14.18;;;;;;;27.14;64.50;96813.75;4983755;28;20060;-61
2021/07/15 06:24:04;;;;;;;21.15;14.27;;;;;;;27.18;63.61;96845.66;4984402;28;20200;-69
2021/07/15 06:26:31;;;;;;;21.73;13.50;;;;;;;27.37;61.54;96827.22;4985349;28;20050;-69
2021/07/15 06:28:57;;;;;;;19.05;15.35;;;;;;;27.29;63.54;96803.25;4983683;28;20058;-68
2021/07/15 06:31:25;;;;;;;19.67;13.15;;;;;;;27.51;61.60;96792.28;4983997;28;20537;-65
2021/07/15 06:33:52;;;;;;;17.88;14.05;;;;;;;27.18;60.64;96760.31;4985716;28;20472;-63
2021/07/15 06:36:19;;;;;;;20.05;14.00;;;;;;;27.28;60.68;96784.63;4985107;28;20572;-64
2021/07/15 06:38:47;;;;;;;19.25;13.55;;;;;;;27.63;62.25;96816.84;4985973;28;20614;-63
2021/07/15 06:41:16;;;;;;;17.58;12.77;;;;;;;27.76;61.03;96803.13;4984401;28;20050;-65
2021/07/15 06:43:43;;;;;;;20.13;12.73;;;;;;;28.22;58.10;96839.69;4983212;28;20433;-66
2021/07/15 06:46:11;;;;;;;15.15;12.18;;;;;;;27.96;56.91;96780.47;4984299;28;20145;-67
2021/07/15 06:48:38;;;;;;;19.17;13.20;;;;;;;28.55;57.17;96828.88;4985334;28;20056;-63
2021/07/15 06:51:05;;;;;;;17.45;12.05;;;;;;;27.60;56.29;96755.19;4986361;28;20726;-65
2021/07/15 06:53:32;;;;;;;18.73;13.23;;;;;;;28.30;56.66;96829.44;4985509;28;20140;-62
2021/07/15 06:55:59;;;;;;;19.73;13.93;;;;;;;27.54;57.00;96734.41;4984861;28;20441;-64
2021/07/15 06:58:28;;;;;;;17.50;13.35;;;;;;;26.73;56.33;96570.22;4984921;28;20061;-66
2021/07/15 07:00:56;;;;;;;17.92;12.38;;;;;;;28.07;55.90;96729.38;4983448;28;20053;-71
2021/07/15 07:03:26;;;;;;;16.52;12.57;;;;;;;28.64;55.64;96814.50;4996582;28;20100;-64
2021/07/15 07:05:53;;;;;;;19.25;13.10;;;;;;;29.00;54.41;96828.22;4985355;28;20521;-62
2021/07/15 07:08:20;;;;;;;13.98;12.43;;;;;;;28.81;53.58;96767.03;4984174;28;20046;-66
2021/07/15 07:10:47;;;;;;;18.80;13.75;;;;;;;28.65;55.62;96821.75;4985285;28;20058;-63
2021/07/15 07:13:14;;;;;;;18.30;12.93;;;;;;;28.88;55.43;96818.72;4986090;28;20062;-68
2021/07/15 07:15:41;;;;;;;18.95;13.50;;;;;;;28.84;54.12;96754.63;4985969;28;20073;-65
2021/07/15 07:18:08;;;;;;;24.95;15.07;;;;;;;28.54;55.44;96804.47;4984807;28;20425;-65
2021/07/15 07:20:35;;;;;;;15.27;12.43;;;;;;;28.82;55.57;96819.94;4983233;28;20076;-64
2021/07/15 07:23:04;;;;;;;15.77;13.63;;;;;;;28.91;56.20;96816.97;4985129;28;20050;-63
2021/07/15 07:25:31;;;;;;;24.63;15.88;;;;;;;28.80;55.74;96816.81;4983910;28;20434;-62
2021/07/15 07:27:58;;;;;;;14.82;13.27;;;;;;;28.79;54.46;96766.75;4983066;28;20058;-68
2021/07/15 07:30:24;;;;;;;20.23;14.38;;;;;;;28.97;54.41;96747.31;4982462;28;20130;-65
2021/07/15 07:32:51;;;;;;;20.70;14.18;;;;;;;28.28;53.65;96672.47;4983160;28;20061;-63
2021/07/15 07:35:18;;;;;;;14.93;13.52;;;;;;;28.17;55.55;96780.56;4983957;28;20529;-62
2021/07/15 07:37:45;;;;;;;16.33;13.88;;;;;;;28.86;54.84;96814.81;4983909;28;20517;-62
2021/07/15 07:40:13;;;;;;;17.50;14.18;;;;;;;28.82;53.66;96788.56;4984332;28;20060;-63
2021/07/15 07:42:41;;;;;;;18.65;13.30;;;;;;;28.74;54.12;96807.38;4983257;28;20062;-62
2021/07/15 07:45:09;;;;;;;15.43;13.50;;;;;;;28.34;54.31;96807.25;4982835;28;20225;-62
2021/07/15 07:47:36;;;;;;;17.42;13.50;;;;;;;28.76;53.47;96804.81;4984383;28;20050;-63
2021/07/15 07:50:07;;;;;;;20.83;14.38;;;;;;;28.98;52.40;96800.19;4984501;28;20050;-62
2021/07/15 07:52:34;;;;;;;17.23;13.90;;;;;;;29.32;52.37;96807.16;4983107;28;20073;-65
2021/07/15 07:55:00;;;;;;;19.25;14.63;;;;;;;29.23;52.30;96810.13;4984774;28;20056;-61
2021/07/15 07:57:33;;;;;;;16.23;13.48;;;;;;;29.43;51.48;96804.44;4984096;28;20146;-61
2021/07/15 08:00:01;;;;;;;13.73;12.35;;;;;;;29.12;52.64;96798.59;4984170;28;20145;-62
2021/07/15 08:02:28;;;;;;;16.63;12.23;;;;;;;29.26;51.90;96798.50;4984644;28;20108;-62
2021/07/15 08:04:54;;;;;;;17.45;12.80;;;;;;;29.83;51.27;96797.91;4982401;28;20142;-63
2021/07/15 08:07:21;;;;;;;15.45;13.27;;;;;;;29.88;49.40;96737.94;5003219;28;20050;-63
2021/07/15 08:09:48;;;;;;;15.25;13.45;;;;;;;30.10;48.39;96769.56;5004483;28;20123;-62
2021/07/15 08:12:16;;;;;;;19.65;14.60;;;;;;;30.57;48.19;96794.66;5004135;28;20053;-61
2021/07/15 08:14:45;;;;;;;18.90;13.80;;;;;;;30.14;48.50;96792.19;5004227;28;20062;-62
2021/07/15 08:17:13;;;;;;;16.15;13.60;;;;;;;30.58;48.00;96779.06;5003773;28;20049;-62
2021/07/15 08:19:41;;;;;;;15.93;12.18;;;;;;;31.00;46.62;96784.00;5003942;28;20046;-61
2021/07/15 08:22:08;;;;;;;14.25;12.75;;;;;;;31.17;46.72;96766.94;5001857;28;20065;-60
2021/07/15 08:24:35;;;;;;;18.83;13.25;;;;;;;30.81;46.66;96737.88;5003858;28;20634;-61
2021/07/15 08:27:02;;;;;;;14.88;12.80;;;;;;;29.93;48.61;96774.34;5003450;28;20084;-63
2021/07/15 08:29:28;;;;;;;14.48;12.93;;;;;;;29.37;49.84;96737.94;5003610;28;20085;-63
2021/07/15 08:31:56;;;;;;;15.68;13.27;;;;;;;30.28;48.10;96792.09;5003564;28;20054;-62
2021/07/15 08:34:22;;;;;;;28.00;14.55;;;;;;;30.76;47.93;96764.38;5003869;28;20057;-62
2021/07/15 08:36:54;;;;;;;17.13;12.73;;;;;;;31.11;46.81;96755.44;5003683;28;20089;-62
2021/07/15 08:39:21;;;;;;;16.17;12.30;;;;;;;31.07;45.68;96691.16;5003614;28;20089;-62
2021/07/15 08:41:49;;;;;;;17.52;13.63;;;;;;;31.74;45.03;96748.13;5003291;28;20054;-63
2021/07/15 08:44:17;;;;;;;15.32;12.10;;;;;;;31.82;44.98;96762.75;5003443;28;20626;-62
2021/07/15 08:46:47;;;;;;;17.02;13.02;;;;;;;32.21;44.32;96760.72;5003531;28;20073;-62
2021/07/15 08:49:16;;;;;;;16.33;13.38;;;;;;;32.26;42.48;96725.53;5003630;28;20057;-62
2021/07/15 08:51:47;;;;;;;20.73;14.20;;;;;;;32.52;43.37;96740.38;5003885;28;20058;-61
2021/07/15 08:54:17;;;;;;;19.50;13.23;;;;;;;32.54;42.55;96754.97;4992154;28;20527;-62
2021/07/15 08:56:46;;;;;;;17.58;13.32;;;;;;;32.12;43.79;96695.03;4983971;28;20415;-64
2021/07/15 08:59:16;;;;;;;14.95;11.50;;;;;;;32.89;41.23;96763.81;4984990;28;20113;-63
2021/07/15 09:01:48;;;;;;;14.05;12.32;;;;;;;32.99;40.37;96744.19;4986369;28;20704;-64
2021/07/15 09:04:15;;;;;;;15.18;10.98;;;;;;;32.85;39.84;96713.69;4985053;28;20054;-63
2021/07/15 09:06:43;;;;;;;17.60;10.88;;;;;;;33.19;39.51;96750.38;4986583;28;20054;-61
2021/07/15 09:09:11;;;;;;;15.93;11.40;;;;;;;32.69;39.42;96675.09;4987179;28;20068;-61
2021/07/15 09:11:39;;;;;;;15.30;10.20;;;;;;;32.94;39.32;96713.41;4987440;28;20058;-61
2021/07/15 09:14:17;;;;;;;12.90;10.40;;;;;;;32.84;39.25;96733.00;4985769;28;20133;-61
2021/07/15 09:16:51;;;;;;;11.57;10.18;;;;;;;32.38;39.37;96638.19;4987907;28;20065;-61
2021/07/15 09:19:22;;;;;;;12.38;9.40;;;;;;;33.10;38.51;96736.31;4985882;28;20134;-63
2021/07/15 09:21:49;;;;;;;11.35;9.32;;;;;;;33.25;38.24;96744.59;4987471;28;20069;-61
2021/07/15 09:24:34;;;;;;;14.77;9.25;;;;;;;32.82;38.32;96729.84;4987769;28;20054;-62
2021/07/15 09:27:13;;;;;;;14.75;10.02;;;;;;;33.01;38.34;96736.63;4987585;28;20058;-61
2021/07/15 09:29:40;;;;;;;10.25;9.25;;;;;;;32.03;39.24;96727.59;4985686;28;20133;-61
2021/07/15 09:32:07;;;;;;;11.93;10.93;;;;;;;30.87;39.04;96484.06;4985663;28;20058;-61
2021/07/15 09:34:36;;;;;;;11.18;9.57;;;;;;;32.14;39.16;96726.81;4985708;28;20073;-62
2021/07/15 09:37:16;;;;;;;11.27;10.18;;;;;;;31.86;38.56;96631.47;4986151;28;20077;-61
2021/07/15 09:39:49;;;;;;;13.27;9.85;;;;;;;32.01;39.31;96672.13;4985610;28;20052;-62
2021/07/15 09:42:18;;;;;;;14.88;9.73;;;;;;;32.62;39.04;96718.72;4987187;28;20054;-59
2021/07/15 09:44:49;;;;;;;13.52;8.95;;;;;;;32.85;37.31;96714.47;4987052;28;20141;-62
2021/07/15 09:47:39;;;;;;;12.38;10.02;;;;;;;32.49;38.16;96707.00;4987128;28;20153;-61
2021/07/15 09:50:18;;;;;;;14.98;10.10;;;;;;;33.10;38.27;96710.47;4986881;28;20151;-63
2021/07/15 09:52:45;;;;;;;13.80;9.05;;;;;;;33.43;36.63;96710.31;4987076;28;20108;-60
2021/07/15 09:55:18;;;;;;;11.65;10.20;;;;;;;33.68;36.43;96703.41;4985518;28;20134;-60
2021/07/15 09:57:46;;;;;;;11.45;8.50;;;;;;;33.75;34.60;96651.06;4985490;28;20058;-61
2021/07/15 10:00:31;;;;;;;11.32;8.05;;;;;;;33.18;34.19;96607.34;4986949;28;20147;-62
2021/07/15 10:02:58;;;;;;;13.30;10.25;;;;;;;33.15;35.06;96686.69;4987397;28;20062;-60
2021/07/15 10:05:25;;;;;;;15.85;8.60;;;;;;;33.14;35.56;96692.97;4986450;28;20595;-61
2021/07/15 10:08:04;;;;;;;13.10;9.40;;;;;;;33.06;36.42;96697.69;4999831;28;20064;-61
2021/07/15 10:10:32;;;;;;;10.80;9.38;;;;;;;33.36;35.35;96682.16;5005103;28;20054;-61
2021/07/15 10:13:20;;;;;;;13.50;8.50;;;;;;;33.80;34.56;96680.31;5004542;28;20060;-61
2021/07/15 10:15:48;;;;;;;9.00;8.05;;;;;;;33.56;34.59;96690.41;5005215;28;20058;-63
2021/07/15 10:18:35;;;;;;;13.45;9.35;;;;;;;33.92;34.55;96684.69;5004574;28;20057;-64
2021/07/15 10:21:04;;;;;;;9.15;8.23;;;;;;;33.92;33.64;96630.06;5005839;28;20057;-65
2021/07/15 10:23:32;;;;;;;9.00;8.10;;;;;;;33.26;33.99;96629.19;5006105;28;20057;-65
2021/07/15 10:26:19;;;;;;;11.00;7.35;;;;;;;32.48;34.98;96659.53;5005450;28;20056;-63
2021/07/15 10:28:48;;;;;;;14.48;8.95;;;;;;;32.83;36.03;96676.91;4982789;28;20054;-65
2021/07/15 10:31:16;;;;;;;8.15;7.32;;;;;;;33.63;34.36;96677.56;4966857;28;20047;-65
2021/07/15 10:33:45;;;;;;;11.27;8.23;;;;;;;32.92;35.47;96589.75;4965116;28;20058;-64
2021/07/15 10:36:13;;;;;;;11.48;9.00;;;;;;;33.33;34.24;96671.72;4964979;28;20525;-64
2021/07/15 10:38:42;;;;;;;13.77;11.40;;;;;;;33.92;33.40;96670.31;4966990;28;20051;-63
2021/07/15 10:41:10;;;;;;;17.73;9.93;;;;;;;34.48;32.96;96674.25;4967027;28;20876;-61
2021/07/15 10:43:41;;;;;;;16.10;8.95;;;;;;;34.81;32.38;96676.75;4965541;28;20055;-61
2021/07/15 10:46:09;;;;;;;9.75;8.13;;;;;;;34.43;31.33;96634.84;4966385;28;20058;-62
2021/07/15 10:48:37;;;;;;;12.32;7.07;;;;;;;34.15;33.12;96665.91;4966810;28;20055;-61
2021/07/15 10:51:05;;;;;;;12.57;8.10;;;;;;;34.10;33.87;96669.66;4966893;28;20150;-60
2021/07/15 10:53:35;;;;;;;19.20;10.25;;;;;;;34.03;32.91;96624.22;4969168;28;20054;-61
2021/07/15 10:56:04;;;;;;;10.82;9.63;;;;;;;34.68;32.12;96673.78;4985968;28;20321;-61
2021/07/15 10:58:44;;;;;;;13.13;8.35;;;;;;;34.02;31.64;96547.91;4986324;28;20501;-62
2021/07/15 11:01:32;;;;;;;13.13;9.30;;;;;;;34.96;31.30;96668.50;4985061;28;20089;-63
2021/07/15 11:04:06;;;;;;;13.23;8.00;;;;;;;34.00;32.54;96660.59;4985424;28;20133;-62
2021/07/15 11:06:37;;;;;;;13.02;8.18;;;;;;;34.23;32.94;96655.38;4988456;28;20042;-61
2021/07/15 11:09:05;;;;;;;14.85;9.65;;;;;;;34.32;32.15;96652.19;5003650;28;20543;-63
2021/07/15 11:11:36;;;;;;;15.27;9.07;;;;;;;33.69;34.00;96641.72;5003354;28;20050;-62
2021/07/15 11:14:04;;;;;;;55.17;11.40;;;;;;;34.38;32.80;96661.53;5003025;28;20070;-62
2021/07/15 11:16:51;;;;;;;12.23;8.57;;;;;;;34.68;32.21;96650.75;5004874;28;20061;-64
2021/07/15 11:19:55;;;;;;;15.40;9.35;;;;;;;35.03;31.00;96662.13;5003079;28;20049;-63
2021/07/15 11:22:43;;;;;;;9.32;8.38;;;;;;;35.07;29.95;96653.97;4984567;28;20046;-62
2021/07/15 11:25:31;;;;;;;12.65;8.45;;;;;;;34.46;31.02;96657.53;4969016;28;20062;-65
2021/07/15 11:28:10;;;;;;;10.43;9.50;;;;;;;34.16;31.74;96653.88;4983985;28;20054;-61
2021/07/15 11:30:37;;;;;;;13.32;8.88;;;;;;;34.61;31.22;96643.50;5009153;28;20057;-61
2021/07/15 11:33:19;;;;;;;9.35;7.75;;;;;;;34.98;30.84;96645.72;4983268;28;20539;-60